sensor_id;sensor_type;location;lat;lon;timestamp;pressure;altitude;pressure_sealevel;temperature;humidity
62402;BME280;48440;51.224;22.506;2023-06-22T00:00:55;99270.25;;;23.17;60.48
62402;BME280;48440;51.224;22.506;2023-06-22T00:03:22;99281.44;;;23.09;60.44
62402;BME280;48440;51.224;22.506;2023-06-22T00:05:49;99269.69;;;23.12;60.42
62402;BME280;48440;51.224;22.506;2023-06-22T00:08:15;99276.03;;;23.12;60.55
62402;BME280;48440;51.224;22.506;2023-06-22T00:10:49;99272.09;;;23.13;60.69
62402;BME280;48440;51.224;22.506;2023-06-22T00:13:18;99269.13;;;23.18;60.29
62402;BME280;48440;51.224;22.506;2023-06-22T00:15:46;99277.28;;;23.15;60.56
62402;BME280;48440;51.224;22.506;2023-06-22T00:18:12;99279.56;;;23.13;60.90
62402;BME280;48440;51.224;22.506;2023-06-22T00:20:38;99281.44;;;23.09;61.18
62402;BME280;48440;51.224;22.506;2023-06-22T00:23:06;99276.56;;;23.06;61.51
62402;BME280;48440;51.224;22.506;2023-06-22T00:25:37;99274.94;;;23.05;61.51
62402;BME280;48440;51.224;22.506;2023-06-22T00:28:03;99273.53;;;22.98;61.85
62402;BME280;48440;51.224;22.506;2023-06-22T00:30:30;99269.34;;;22.92;62.21
62402;BME280;48440;51.224;22.506;2023-06-22T00:32:56;99270.00;;;22.89;62.61
62402;BME280;48440;51.224;22.506;2023-06-22T00:35:21;99271.63;;;22.90;62.47
62402;BME280;48440;51.224;22.506;2023-06-22T00:37:47;99266.91;;;22.91;62.55
62402;BME280;48440;51.224;22.506;2023-06-22T00:40:12;99267.47;;;22.84;63.00
62402;BME280;48440;51.224;22.506;2023-06-22T00:42:40;99260.16;;;22.80;62.85
62402;BME280;48440;51.224;22.506;2023-06-22T00:45:06;99254.16;;;22.78;62.97
62402;BME280;48440;51.224;22.506;2023-06-22T00:47:34;99258.38;;;22.75;62.93
62402;BME280;48440;51.224;22.506;2023-06-22T00:49:59;99251.53;;;22.81;62.70
62402;BME280;48440;51.224;22.506;2023-06-22T00:52:26;99254.63;;;22.80;62.39
62402;BME280;48440;51.224;22.506;2023-06-22T00:54:54;99270.75;;;22.78;62.50
62402;BME280;48440;51.224;22.506;2023-06-22T00:57:21;99287.00;;;22.79;62.36
62402;BME280;48440;51.224;22.506;2023-06-22T00:59:47;99278.38;;;22.81;62.75
62402;BME280;48440;51.224;22.506;2023-06-22T01:02:14;99261.94;;;22.76;62.83
62402;BME280;48440;51.224;22.506;2023-06-22T01:04:40;99254.13;;;22.57;63.53
62402;BME280;48440;51.224;22.506;2023-06-22T01:12:25;99260.31;;;22.54;63.96
62402;BME280;48440;51.224;22.506;2023-06-22T01:15:00;99248.28;;;22.50;64.39
62402;BME280;48440;51.224;22.506;2023-06-22T01:17:27;99241.09;;;22.28;64.95
62402;BME280;48440;51.224;22.506;2023-06-22T01:19:55;99240.09;;;22.32;64.94
62402;BME280;48440;51.224;22.506;2023-06-22T01:22:24;99242.88;;;22.32;64.94
62402;BME280;48440;51.224;22.506;2023-06-22T01:30:29;99242.56;;;22.25;65.26
62402;BME280;48440;51.224;22.506;2023-06-22T01:32:57;99241.44;;;22.26;65.40
62402;BME280;48440;51.224;22.506;2023-06-22T01:35:24;99238.19;;;22.24;65.78
62402;BME280;48440;51.224;22.506;2023-06-22T01:37:50;99236.09;;;22.21;65.59
62402;BME280;48440;51.224;22.506;2023-06-22T01:40:16;99243.25;;;22.22;65.72
62402;BME280;48440;51.224;22.506;2023-06-22T01:42:43;99230.41;;;22.18;65.79
62402;BME280;48440;51.224;22.506;2023-06-22T01:45:10;99228.13;;;22.20;65.81
62402;BME280;48440;51.224;22.506;2023-06-22T01:47:36;99227.66;;;22.18;65.78
62402;BME280;48440;51.224;22.506;2023-06-22T01:50:02;99233.84;;;22.15;66.00
62402;BME280;48440;51.224;22.506;2023-06-22T01:52:28;99238.88;;;22.13;66.06
62402;BME280;48440;51.224;22.506;2023-06-22T01:54:53;99241.16;;;22.11;66.50
62402;BME280;48440;51.224;22.506;2023-06-22T01:57:19;99240.03;;;22.12;66.31
62402;BME280;48440;51.224;22.506;2023-06-22T02:00:04;99241.97;;;22.11;66.24
62402;BME280;48440;51.224;22.506;2023-06-22T02:02:48;99241.66;;;22.13;66.24
62402;BME280;48440;51.224;22.506;2023-06-22T02:05:18;99239.91;;;22.08;66.48
62402;BME280;48440;51.224;22.506;2023-06-22T02:07:47;99241.88;;;22.08;66.35
62402;BME280;48440;51.224;22.506;2023-06-22T02:10:16;99241.38;;;22.06;66.44
62402;BME280;48440;51.224;22.506;2023-06-22T02:12:44;99250.81;;;22.05;66.65
62402;BME280;48440;51.224;22.506;2023-06-22T02:15:11;99246.91;;;21.97;66.90
62402;BME280;48440;51.224;22.506;2023-06-22T02:17:38;99249.84;;;21.92;67.14
62402;BME280;48440;51.224;22.506;2023-06-22T02:20:04;99257.66;;;21.90;67.18
62402;BME280;48440;51.224;22.506;2023-06-22T02:22:32;99263.50;;;21.88;67.25
62402;BME280;48440;51.224;22.506;2023-06-22T02:24:58;99275.34;;;21.89;67.41
62402;BME280;48440;51.224;22.506;2023-06-22T02:27:23;99280.06;;;21.88;67.30
62402;BME280;48440;51.224;22.506;2023-06-22T02:29:51;99279.59;;;21.86;67.48
62402;BME280;48440;51.224;22.506;2023-06-22T02:32:17;99284.84;;;21.79;67.73
62402;BME280;48440;51.224;22.506;2023-06-22T02:34:43;99279.31;;;21.79;68.13
62402;BME280;48440;51.224;22.506;2023-06-22T02:37:13;99277.53;;;21.75;68.22
62402;BME280;48440;51.224;22.506;2023-06-22T02:39:42;99277.84;;;21.73;68.26
62402;BME280;48440;51.224;22.506;2023-06-22T02:42:08;99284.50;;;21.72;68.49
62402;BME280;48440;51.224;22.506;2023-06-22T02:44:36;99291.66;;;21.73;68.31
62402;BME280;48440;51.224;22.506;2023-06-22T02:47:01;99294.91;;;21.75;68.11
62402;BME280;48440;51.224;22.506;2023-06-22T02:49:27;99284.50;;;21.72;68.39
62402;BME280;48440;51.224;22.506;2023-06-22T02:51:52;99292.00;;;21.72;68.35
62402;BME280;48440;51.224;22.506;2023-06-22T02:54:19;99293.63;;;21.64;68.62
62402;BME280;48440;51.224;22.506;2023-06-22T02:56:44;99297.53;;;21.63;68.81
62402;BME280;48440;51.224;22.506;2023-06-22T02:59:10;99298.66;;;21.62;69.09
62402;BME280;48440;51.224;22.506;2023-06-22T03:01:36;99300.28;;;21.63;69.20
62402;BME280;48440;51.224;22.506;2023-06-22T03:04:09;99296.72;;;21.62;69.17
62402;BME280;48440;51.224;22.506;2023-06-22T03:06:35;99289.72;;;21.65;69.12
62402;BME280;48440;51.224;22.506;2023-06-22T03:09:02;99290.03;;;21.63;68.83
62402;BME280;48440;51.224;22.506;2023-06-22T03:11:32;99288.59;;;21.57;69.65
62402;BME280;48440;51.224;22.506;2023-06-22T03:13:58;99291.22;;;21.54;69.42
62402;BME280;48440;51.224;22.506;2023-06-22T03:16:24;99288.78;;;21.52;69.71
62402;BME280;48440;51.224;22.506;2023-06-22T03:18:50;99298.03;;;21.56;69.82
62402;BME280;48440;51.224;22.506;2023-06-22T03:21:15;99309.53;;;21.58;69.91
62402;BME280;48440;51.224;22.506;2023-06-22T03:23:42;99302.88;;;21.68;69.41
62402;BME280;48440;51.224;22.506;2023-06-22T03:26:11;99306.59;;;21.72;69.70
62402;BME280;48440;51.224;22.506;2023-06-22T03:28:37;99304.81;;;21.76;69.64
62402;BME280;48440;51.224;22.506;2023-06-22T03:31:04;99294.41;;;21.73;69.59
62402;BME280;48440;51.224;22.506;2023-06-22T03:33:31;99299.78;;;21.70;69.73
62402;BME280;48440;51.224;22.506;2023-06-22T03:35:57;99299.47;;;21.71;69.94
62402;BME280;48440;51.224;22.506;2023-06-22T03:38:22;99300.44;;;21.66;70.32
62402;BME280;48440;51.224;22.506;2023-06-22T03:40:48;99302.06;;;21.67;70.33
62402;BME280;48440;51.224;22.506;2023-06-22T03:43:13;99305.31;;;21.70;70.25
62402;BME280;48440;51.224;22.506;2023-06-22T03:45:39;99305.47;;;21.73;70.37
62402;BME280;48440;51.224;22.506;2023-06-22T03:48:05;99300.44;;;21.75;70.00
62402;BME280;48440;51.224;22.506;2023-06-22T03:50:31;99300.59;;;21.79;70.24
62402;BME280;48440;51.224;22.506;2023-06-22T03:52:56;99298.63;;;21.79;70.51
62402;BME280;48440;51.224;22.506;2023-06-22T03:55:22;99307.72;;;21.80;70.41
62402;BME280;48440;51.224;22.506;2023-06-22T03:57:47;99305.91;;;21.84;70.38
62402;BME280;48440;51.224;22.506;2023-06-22T04:00:13;99308.34;;;21.85;70.43
62402;BME280;48440;51.224;22.506;2023-06-22T04:02:41;99313.22;;;21.88;70.13
62402;BME280;48440;51.224;22.506;2023-06-22T04:05:08;99314.84;;;21.89;70.04
62402;BME280;48440;51.224;22.506;2023-06-22T04:07:34;99315.81;;;21.93;70.16
62402;BME280;48440;51.224;22.506;2023-06-22T04:10:03;99317.09;;;21.96;70.34
62402;BME280;48440;51.224;22.506;2023-06-22T04:12:29;99309.31;;;21.98;70.25
62402;BME280;48440;51.224;22.506;2023-06-22T04:14:54;99320.34;;;21.98;69.91
62402;BME280;48440;51.224;22.506;2023-06-22T04:17:20;99318.41;;;21.98;70.70
62402;BME280;48440;51.224;22.506;2023-06-22T04:19:46;99323.31;;;22.02;70.43
62402;BME280;48440;51.224;22.506;2023-06-22T04:22:11;99333.03;;;22.08;70.66
62402;BME280;48440;51.224;22.506;2023-06-22T04:24:37;99340.63;;;22.11;70.55
62402;BME280;48440;51.224;22.506;2023-06-22T04:27:03;99341.91;;;22.22;70.42
62402;BME280;48440;51.224;22.506;2023-06-22T04:29:35;99335.88;;;22.28;70.28
62402;BME280;48440;51.224;22.506;2023-06-22T04:32:00;99334.75;;;22.29;70.24
62402;BME280;48440;51.224;22.506;2023-06-22T04:34:30;99339.63;;;22.32;69.99
62402;BME280;48440;51.224;22.506;2023-06-22T04:39:21;99349.63;;;22.46;69.92
62402;BME280;48440;51.224;22.506;2023-06-22T04:41:47;99351.41;;;22.50;69.95
62402;BME280;48440;51.224;22.506;2023-06-22T04:44:18;99345.88;;;22.50;70.14
62402;BME280;48440;51.224;22.506;2023-06-22T04:46:53;99341.97;;;22.51;70.38
62402;BME280;48440;51.224;22.506;2023-06-22T04:49:34;99338.88;;;22.53;70.78
62402;BME280;48440;51.224;22.506;2023-06-22T04:52:03;99345.03;;;22.58;70.79
62402;BME280;48440;51.224;22.506;2023-06-22T04:54:29;99339.63;;;22.62;70.61
62402;BME280;48440;51.224;22.506;2023-06-22T04:56:54;99346.09;;;22.66;70.51
62402;BME280;48440;51.224;22.506;2023-06-22T04:59:24;99336.34;;;22.68;70.02
62402;BME280;48440;51.224;22.506;2023-06-22T05:01:54;99342.16;;;22.76;69.90
62402;BME280;48440;51.224;22.506;2023-06-22T05:04:21;99342.66;;;22.78;70.11
62402;BME280;48440;51.224;22.506;2023-06-22T05:06:46;99346.25;;;22.78;69.99
62402;BME280;48440;51.224;22.506;2023-06-22T05:09:11;99338.25;;;22.77;69.78
62402;BME280;48440;51.224;22.506;2023-06-22T05:11:37;99346.88;;;22.75;70.04
62402;BME280;48440;51.224;22.506;2023-06-22T05:14:03;99338.91;;;22.74;70.32
62402;BME280;48440;51.224;22.506;2023-06-22T05:16:28;99335.66;;;22.72;70.40
62402;BME280;48440;51.224;22.506;2023-06-22T05:18:54;99333.91;;;22.67;70.85
62402;BME280;48440;51.224;22.506;2023-06-22T05:21:23;99335.03;;;22.66;70.94
62402;BME280;48440;51.224;22.506;2023-06-22T05:23:50;99337.63;;;22.71;70.85
62402;BME280;48440;51.224;22.506;2023-06-22T05:26:15;99341.88;;;22.68;71.53
62402;BME280;48440;51.224;22.506;2023-06-22T05:28:41;99345.91;;;22.71;71.25
62402;BME280;48440;51.224;22.506;2023-06-22T05:31:06;99347.41;;;22.68;71.65
62402;BME280;48440;51.224;22.506;2023-06-22T05:33:32;99350.16;;;22.68;71.77
62402;BME280;48440;51.224;22.506;2023-06-22T05:35:58;99344.47;;;22.65;71.77
62402;BME280;48440;51.224;22.506;2023-06-22T05:38:23;99343.66;;;22.64;71.64
62402;BME280;48440;51.224;22.506;2023-06-22T05:40:49;99343.34;;;22.66;72.09
62402;BME280;48440;51.224;22.506;2023-06-22T05:43:18;99348.88;;;22.66;72.11
62402;BME280;48440;51.224;22.506;2023-06-22T05:45:44;99344.97;;;22.67;71.68
62402;BME280;48440;51.224;22.506;2023-06-22T05:48:09;99343.47;;;22.78;71.31
62402;BME280;48440;51.224;22.506;2023-06-22T05:50:36;99346.28;;;22.99;70.75
62402;BME280;48440;51.224;22.506;2023-06-22T05:53:02;99348.03;;;23.24;70.79
62402;BME280;48440;51.224;22.506;2023-06-22T05:55:27;99348.78;;;23.33;70.68
62402;BME280;48440;51.224;22.506;2023-06-22T05:57:52;99345.69;;;23.35;70.73
62402;BME280;48440;51.224;22.506;2023-06-22T06:00:18;99341.16;;;23.30;71.07
62402;BME280;48440;51.224;22.506;2023-06-22T06:02:47;99341.63;;;23.32;70.58
62402;BME280;48440;51.224;22.506;2023-06-22T06:05:14;99340.00;;;23.31;70.90
62402;BME280;48440;51.224;22.506;2023-06-22T06:07:40;99341.22;;;23.43;69.92
62402;BME280;48440;51.224;22.506;2023-06-22T06:10:06;99348.28;;;23.73;69.65
62402;BME280;48440;51.224;22.506;2023-06-22T06:12:32;99341.19;;;24.29;68.44
62402;BME280;48440;51.224;22.506;2023-06-22T06:14:58;99344.78;;;24.79;67.28
62402;BME280;48440;51.224;22.506;2023-06-22T06:17:23;99346.19;;;24.97;64.96
62402;BME280;48440;51.224;22.506;2023-06-22T06:19:48;99354.16;;;24.86;65.42
62402;BME280;48440;51.224;22.506;2023-06-22T06:22:14;99360.41;;;24.83;65.25
62402;BME280;48440;51.224;22.506;2023-06-22T06:24:39;99346.28;;;24.76;65.48
62402;BME280;48440;51.224;22.506;2023-06-22T06:27:05;99352.41;;;24.69;65.36
62402;BME280;48440;51.224;22.506;2023-06-22T06:29:33;99351.97;;;24.92;65.22
62402;BME280;48440;51.224;22.506;2023-06-22T06:32:00;99347.66;;;25.19;65.10
62402;BME280;48440;51.224;22.506;2023-06-22T06:34:25;99348.81;;;25.18;64.04
62402;BME280;48440;51.224;22.506;2023-06-22T06:36:51;99351.59;;;25.18;64.73
62402;BME280;48440;51.224;22.506;2023-06-22T06:39:16;99345.13;;;25.54;63.30
62402;BME280;48440;51.224;22.506;2023-06-22T06:41:42;99346.16;;;25.89;62.57
62402;BME280;48440;51.224;22.506;2023-06-22T06:44:07;99350.78;;;26.29;61.53
62402;BME280;48440;51.224;22.506;2023-06-22T06:46:33;99353.94;;;26.75;60.55
62402;BME280;48440;51.224;22.506;2023-06-22T06:48:58;99354.06;;;27.13;58.69
62402;BME280;48440;51.224;22.506;2023-06-22T06:51:24;99354.91;;;27.33;57.54
62402;BME280;48440;51.224;22.506;2023-06-22T06:53:49;99345.53;;;27.06;58.08
62402;BME280;48440;51.224;22.506;2023-06-22T06:56:15;99340.28;;;26.85;58.98
62402;BME280;48440;51.224;22.506;2023-06-22T06:58:41;99343.53;;;26.56;59.46
62402;BME280;48440;51.224;22.506;2023-06-22T07:01:11;99344.53;;;26.48;60.09
62402;BME280;48440;51.224;22.506;2023-06-22T07:03:37;99332.03;;;26.57;60.16
62402;BME280;48440;51.224;22.506;2023-06-22T07:06:03;99336.25;;;26.98;59.87
62402;BME280;48440;51.224;22.506;2023-06-22T07:08:28;99333.84;;;27.16;59.47
62402;BME280;48440;51.224;22.506;2023-06-22T07:10:54;99333.72;;;27.48;57.85
62402;BME280;48440;51.224;22.506;2023-06-22T07:13:19;99338.53;;;27.66;58.07
62402;BME280;48440;51.224;22.506;2023-06-22T07:15:45;99338.56;;;27.89;57.10
62402;BME280;48440;51.224;22.506;2023-06-22T07:18:10;99345.97;;;28.01;56.16
62402;BME280;48440;51.224;22.506;2023-06-22T07:20:36;99346.06;;;28.08;56.08
62402;BME280;48440;51.224;22.506;2023-06-22T07:23:02;99354.81;;;28.07;56.66
62402;BME280;48440;51.224;22.506;2023-06-22T07:25:27;99362.78;;;27.85;57.11
62402;BME280;48440;51.224;22.506;2023-06-22T07:27:57;99360.09;;;27.69;57.15
62402;BME280;48440;51.224;22.506;2023-06-22T07:30:23;99359.47;;;27.41;58.49
62402;BME280;48440;51.224;22.506;2023-06-22T07:32:48;99347.53;;;27.60;58.37
62402;BME280;48440;51.224;22.506;2023-06-22T07:35:14;99350.16;;;27.91;58.12
62402;BME280;48440;51.224;22.506;2023-06-22T07:37:42;99346.22;;;28.15;57.63
62402;BME280;48440;51.224;22.506;2023-06-22T07:40:08;99344.88;;;27.86;57.05
62402;BME280;48440;51.224;22.506;2023-06-22T07:42:33;99350.00;;;28.03;57.06
62402;BME280;48440;51.224;22.506;2023-06-22T07:44:59;99348.88;;;28.08;57.95
62402;BME280;48440;51.224;22.506;2023-06-22T07:47:25;99349.69;;;28.09;57.89
62402;BME280;48440;51.224;22.506;2023-06-22T07:49:54;99341.69;;;28.07;57.34
62402;BME280;48440;51.224;22.506;2023-06-22T07:52:20;99352.22;;;28.17;57.86
62402;BME280;48440;51.224;22.506;2023-06-22T07:54:46;99352.19;;;28.59;57.78
62402;BME280;48440;51.224;22.506;2023-06-22T07:57:12;99360.00;;;28.73;55.80
62402;BME280;48440;51.224;22.506;2023-06-22T07:59:37;99344.91;;;29.00;56.04
62402;BME280;48440;51.224;22.506;2023-06-22T08:02:03;99347.94;;;29.18;55.58
62402;BME280;48440;51.224;22.506;2023-06-22T08:04:29;99349.78;;;29.07;54.98
62402;BME280;48440;51.224;22.506;2023-06-22T08:06:56;99350.63;;;29.11;54.67
62402;BME280;48440;51.224;22.506;2023-06-22T08:09:21;99353.03;;;29.13;55.37
62402;BME280;48440;51.224;22.506;2023-06-22T08:11:47;99357.56;;;29.21;54.76
62402;BME280;48440;51.224;22.506;2023-06-22T08:14:14;99352.28;;;29.42;54.44
62402;BME280;48440;51.224;22.506;2023-06-22T08:16:40;99355.97;;;29.50;53.64
62402;BME280;48440;51.224;22.506;2023-06-22T08:19:06;99352.59;;;29.67;53.20
62402;BME280;48440;51.224;22.506;2023-06-22T08:21:31;99352.06;;;29.91;53.11
62402;BME280;48440;51.224;22.506;2023-06-22T08:23:57;99345.53;;;29.77;52.82
62402;BME280;48440;51.224;22.506;2023-06-22T08:26:22;99347.09;;;29.74;53.41
62402;BME280;48440;51.224;22.506;2023-06-22T08:28:48;99346.13;;;29.96;53.03
62402;BME280;48440;51.224;22.506;2023-06-22T08:31:14;99344.84;;;29.87;53.30
62402;BME280;48440;51.224;22.506;2023-06-22T08:33:39;99352.97;;;29.65;53.38
62402;BME280;48440;51.224;22.506;2023-06-22T08:36:05;99344.09;;;29.56;53.97
62402;BME280;48440;51.224;22.506;2023-06-22T08:38:31;99344.81;;;29.83;54.09
62402;BME280;48440;51.224;22.506;2023-06-22T08:40:57;99350.41;;;29.83;53.75
62402;BME280;48440;51.224;22.506;2023-06-22T08:43:23;99342.88;;;29.87;52.88
62402;BME280;48440;51.224;22.506;2023-06-22T08:45:48;99343.78;;;29.98;52.42
62402;BME280;48440;51.224;22.506;2023-06-22T08:48:14;99345.88;;;30.05;52.53
62402;BME280;48440;51.224;22.506;2023-06-22T08:50:39;99340.44;;;29.86;53.78
62402;BME280;48440;51.224;22.506;2023-06-22T08:53:05;99337.69;;;29.93;52.94
62402;BME280;48440;51.224;22.506;2023-06-22T08:55:31;99338.13;;;29.95;53.40
62402;BME280;48440;51.224;22.506;2023-06-22T08:57:57;99336.38;;;30.13;52.13
62402;BME280;48440;51.224;22.506;2023-06-22T09:00:22;99339.41;;;30.42;51.91
62402;BME280;48440;51.224;22.506;2023-06-22T09:02:48;99338.41;;;30.60;51.30
62402;BME280;48440;51.224;22.506;2023-06-22T09:05:14;99343.34;;;30.33;51.69
62402;BME280;48440;51.224;22.506;2023-06-22T09:07:39;99348.19;;;29.99;51.89
62402;BME280;48440;51.224;22.506;2023-06-22T09:10:06;99345.16;;;29.78;52.43
62402;BME280;48440;51.224;22.506;2023-06-22T09:12:32;99354.69;;;29.44;52.54
62402;BME280;48440;51.224;22.506;2023-06-22T09:14:58;99353.69;;;29.29;53.60
62402;BME280;48440;51.224;22.506;2023-06-22T09:17:26;99348.03;;;29.25;54.79
62402;BME280;48440;51.224;22.506;2023-06-22T09:19:51;99352.31;;;29.46;54.56
62402;BME280;48440;51.224;22.506;2023-06-22T09:22:17;99354.13;;;29.61;53.92
62402;BME280;48440;51.224;22.506;2023-06-22T09:24:43;99357.16;;;29.49;53.96
62402;BME280;48440;51.224;22.506;2023-06-22T09:27:08;99352.56;;;29.33;53.76
62402;BME280;48440;51.224;22.506;2023-06-22T09:29:33;99347.97;;;29.48;54.60
62402;BME280;48440;51.224;22.506;2023-06-22T09:32:02;99346.25;;;29.70;54.41
62402;BME280;48440;51.224;22.506;2023-06-22T09:34:28;99358.00;;;29.53;54.73
62402;BME280;48440;51.224;22.506;2023-06-22T09:36:53;99341.44;;;29.70;53.59
62402;BME280;48440;51.224;22.506;2023-06-22T09:39:19;99343.19;;;29.82;53.29
62402;BME280;48440;51.224;22.506;2023-06-22T09:41:44;99336.50;;;29.94;51.92
62402;BME280;48440;51.224;22.506;2023-06-22T09:44:10;99335.34;;;29.95;52.65
62402;BME280;48440;51.224;22.506;2023-06-22T09:46:35;99339.41;;;29.67;51.81
62402;BME280;48440;51.224;22.506;2023-06-22T09:49:01;99343.56;;;29.47;52.24
62402;BME280;48440;51.224;22.506;2023-06-22T09:51:26;99338.84;;;29.51;53.59
62402;BME280;48440;51.224;22.506;2023-06-22T09:53:52;99335.81;;;29.67;54.13
62402;BME280;48440;51.224;22.506;2023-06-22T09:56:19;99337.03;;;29.69;53.91
62402;BME280;48440;51.224;22.506;2023-06-22T09:58:45;99326.09;;;29.87;54.27
62402;BME280;48440;51.224;22.506;2023-06-22T10:01:17;99332.06;;;29.89;54.60
62402;BME280;48440;51.224;22.506;2023-06-22T10:03:43;99333.53;;;29.76;54.95
62402;BME280;48440;51.224;22.506;2023-06-22T10:06:08;99324.72;;;29.41;55.31
62402;BME280;48440;51.224;22.506;2023-06-22T10:08:37;99329.06;;;29.08;55.20
62402;BME280;48440;51.224;22.506;2023-06-22T10:11:03;99341.72;;;29.02;55.13
62402;BME280;48440;51.224;22.506;2023-06-22T10:13:29;99331.47;;;29.10;55.53
62402;BME280;48440;51.224;22.506;2023-06-22T10:15:54;99329.00;;;29.34;54.73
62402;BME280;48440;51.224;22.506;2023-06-22T10:18:20;99330.22;;;29.67;54.57
62402;BME280;48440;51.224;22.506;2023-06-22T10:20:50;99322.91;;;29.92;54.14
62402;BME280;48440;51.224;22.506;2023-06-22T10:23:17;99324.72;;;30.08;53.86
62402;BME280;48440;51.224;22.506;2023-06-22T10:25:42;99323.22;;;30.21;52.63
62402;BME280;48440;51.224;22.506;2023-06-22T10:28:08;99328.34;;;30.12;52.84
62402;BME280;48440;51.224;22.506;2023-06-22T10:30:33;99337.38;;;29.98;53.71
62402;BME280;48440;51.224;22.506;2023-06-22T10:32:59;99327.97;;;29.80;53.22
62402;BME280;48440;51.224;22.506;2023-06-22T10:35:24;99326.84;;;29.84;53.00
62402;BME280;48440;51.224;22.506;2023-06-22T10:37:50;99321.72;;;29.93;53.22
62402;BME280;48440;51.224;22.506;2023-06-22T10:40:16;99325.09;;;29.73;54.25
62402;BME280;48440;51.224;22.506;2023-06-22T10:42:42;99315.41;;;29.63;53.74
62402;BME280;48440;51.224;22.506;2023-06-22T10:45:09;99311.81;;;29.32;54.12
62402;BME280;48440;51.224;22.506;2023-06-22T10:47:35;99313.66;;;29.21;53.18
62402;BME280;48440;51.224;22.506;2023-06-22T10:50:01;99325.31;;;29.27;54.81
62402;BME280;48440;51.224;22.506;2023-06-22T10:52:27;99321.81;;;29.33;55.55
62402;BME280;48440;51.224;22.506;2023-06-22T10:54:52;99306.94;;;29.26;55.03
62402;BME280;48440;51.224;22.506;2023-06-22T10:57:18;99310.88;;;29.21;55.35
62402;BME280;48440;51.224;22.506;2023-06-22T10:59:43;99307.78;;;29.30;54.73
62402;BME280;48440;51.224;22.506;2023-06-22T11:02:09;99297.75;;;29.25;54.91
62402;BME280;48440;51.224;22.506;2023-06-22T11:04:34;99303.97;;;29.42;54.65
62402;BME280;48440;51.224;22.506;2023-06-22T11:07:00;99306.81;;;29.45;53.42
62402;BME280;48440;51.224;22.506;2023-06-22T11:09:26;99306.44;;;29.47;53.61
62402;BME280;48440;51.224;22.506;2023-06-22T11:11:52;99304.06;;;29.49;51.59
62402;BME280;48440;51.224;22.506;2023-06-22T11:14:21;99312.81;;;29.47;51.76
62402;BME280;48440;51.224;22.506;2023-06-22T11:16:47;99314.69;;;29.39;53.66
62402;BME280;48440;51.224;22.506;2023-06-22T11:19:13;99299.84;;;29.32;53.28
62402;BME280;48440;51.224;22.506;2023-06-22T11:21:38;99304.03;;;29.19;53.47
62402;BME280;48440;51.224;22.506;2023-06-22T11:24:04;99302.06;;;29.19;52.71
62402;BME280;48440;51.224;22.506;2023-06-22T11:26:30;99306.50;;;29.24;52.08
62402;BME280;48440;51.224;22.506;2023-06-22T11:28:57;99314.50;;;29.25;52.16
62402;BME280;48440;51.224;22.506;2023-06-22T11:31:22;99314.47;;;29.22;52.42
62402;BME280;48440;51.224;22.506;2023-06-22T11:33:48;99300.75;;;29.10;53.47
62402;BME280;48440;51.224;22.506;2023-06-22T11:36:14;99294.69;;;29.04;52.95
62402;BME280;48440;51.224;22.506;2023-06-22T11:38:40;99296.72;;;29.07;52.80
62402;BME280;48440;51.224;22.506;2023-06-22T11:41:08;99287.59;;;29.10;52.28
62402;BME280;48440;51.224;22.506;2023-06-22T11:43:34;99294.81;;;29.15;52.29
62402;BME280;48440;51.224;22.506;2023-06-22T11:46:01;99293.66;;;29.19;52.33
62402;BME280;48440;51.224;22.506;2023-06-22T11:48:27;99299.63;;;29.18;51.44
62402;BME280;48440;51.224;22.506;2023-06-22T11:50:53;99300.34;;;29.11;51.48
62402;BME280;48440;51.224;22.506;2023-06-22T11:53:20;99295.09;;;29.06;51.74
62402;BME280;48440;51.224;22.506;2023-06-22T11:55:47;99291.09;;;29.03;50.31
62402;BME280;48440;51.224;22.506;2023-06-22T11:58:12;99296.81;;;28.88;49.89
62402;BME280;48440;51.224;22.506;2023-06-22T12:00:38;99286.66;;;28.76;50.17
62402;BME280;48440;51.224;22.506;2023-06-22T12:03:03;99291.81;;;28.74;50.72
62402;BME280;48440;51.224;22.506;2023-06-22T12:05:29;99296.59;;;28.74;50.28
62402;BME280;48440;51.224;22.506;2023-06-22T12:07:55;99285.06;;;28.75;50.81
62402;BME280;48440;51.224;22.506;2023-06-22T12:10:25;99286.63;;;28.73;49.90
62402;BME280;48440;51.224;22.506;2023-06-22T12:12:50;99290.09;;;28.66;50.06
62402;BME280;48440;51.224;22.506;2023-06-22T12:15:16;99296.47;;;28.66;50.60
62402;BME280;48440;51.224;22.506;2023-06-22T12:17:41;99300.81;;;28.64;50.74
62402;BME280;48440;51.224;22.506;2023-06-22T12:20:07;99303.31;;;28.69;50.77
62402;BME280;48440;51.224;22.506;2023-06-22T12:22:34;99307.28;;;28.68;51.11
62402;BME280;48440;51.224;22.506;2023-06-22T12:25:00;99311.56;;;28.62;51.30
62402;BME280;48440;51.224;22.506;2023-06-22T12:27:25;99315.81;;;28.52;51.21
62402;BME280;48440;51.224;22.506;2023-06-22T12:29:51;99315.44;;;28.54;50.61
62402;BME280;48440;51.224;22.506;2023-06-22T12:32:16;99322.88;;;28.46;51.12
62402;BME280;48440;51.224;22.506;2023-06-22T12:34:43;99317.28;;;28.46;50.67
62402;BME280;48440;51.224;22.506;2023-06-22T12:37:09;99321.56;;;28.40;50.84
62402;BME280;48440;51.224;22.506;2023-06-22T12:39:34;99319.59;;;28.41;50.54
62402;BME280;48440;51.224;22.506;2023-06-22T12:42:00;99320.78;;;28.40;50.81
62402;BME280;48440;51.224;22.506;2023-06-22T12:44:25;99316.38;;;28.38;51.29
62402;BME280;48440;51.224;22.506;2023-06-22T12:46:51;99314.31;;;28.35;50.71
62402;BME280;48440;51.224;22.506;2023-06-22T12:49:16;99318.28;;;28.34;50.73
62402;BME280;48440;51.224;22.506;2023-06-22T12:51:42;99313.84;;;28.30;50.71
62402;BME280;48440;51.224;22.506;2023-06-22T12:54:08;99313.47;;;28.31;50.51
62402;BME280;48440;51.224;22.506;2023-06-22T12:56:34;99315.84;;;28.29;50.39
62402;BME280;48440;51.224;22.506;2023-06-22T12:59:00;99317.06;;;28.32;50.62